Main page
METAR-TAF:

METAR-TAF

Airports :

Angads Airport

Oujda, Morocco

latitude: 34-47N, longitude: 001-56W, elevation: 468 m

Current weather observation

The report was made 41 minutes ago, at 01:00 UTC
Wind 8 kt from the North/Northwest
Temperature 19°C
Humidity 94%
Pressure 1017 hPa
Visibility 10 km or more
Few clouds at a height of 2600 ft
Broken clouds at a height of 10000 ft

METAR: GMFO 220100Z 33008KT 9999 FEW026 BKN100 19/18 Q1017 NOSIG

Time: 02:41 (01:41 UTC)

Forecast

The report was made 2 hours and 41 minutes ago, at 23:00 UTC
Forecast valid from 22 at 00 UTC to 23 at 06 UTC
Wind 6 kt from the North/Northwest
Visibility 10 km or more
Few clouds at a height of 2000 ft
Scattered clouds at a height of 10000 ft
Probability 30% :
Temporary
from 22 at 04 UTC to 22 at 07 UTC
Visibility: 3000 m
Broken clouds at a height of 1000 ft
mist
Temporary
from 22 at 12 UTC to 22 at 18 UTC
Wind 17 kt from the North

TAF: GMFO 212300Z 2200/2306 34006KT 9999 FEW020 SCT100 PROB30 TEMPO 2204/2207 3000 BR BKN010 TEMPO 2212/2218 36017KT

Weather observations and forecasts of more than 4000 airports (METAR and TAF reports).

The available stations are represented by yellow and red dots on the map.

Hover mouse over dot to see the name of the station.

Then click to see weather observations and forecasts.

To change the map : click on the green buttons with a black cross to zoom in, on the green button with a dash to zoom out, or on the green arrows for adjacent maps.


METAR-TAF: